sensor_id;sensor_type;location;lat;lon;timestamp;temperature;humidity
3705;DHT22;1868;48.918;9.438;2022-11-20T00:01:33;6.10;97.40
3705;DHT22;1868;48.918;9.438;2022-11-20T00:04:01;6.20;97.40
3705;DHT22;1868;48.918;9.438;2022-11-20T00:06:30;6.10;97.40
3705;DHT22;1868;48.918;9.438;2022-11-20T00:08:59;6.20;97.40
3705;DHT22;1868;48.918;9.438;2022-11-20T00:11:31;6.10;97.40
3705;DHT22;1868;48.918;9.438;2022-11-20T00:14:01;6.20;97.40
3705;DHT22;1868;48.918;9.438;2022-11-20T00:16:31;6.20;97.40
3705;DHT22;1868;48.918;9.438;2022-11-20T00:19:01;6.10;97.40
3705;DHT22;1868;48.918;9.438;2022-11-20T00:21:29;6.10;97.40
3705;DHT22;1868;48.918;9.438;2022-11-20T00:23:58;6.20;97.40
3705;DHT22;1868;48.918;9.438;2022-11-20T00:26:28;6.20;97.40
3705;DHT22;1868;48.918;9.438;2022-11-20T00:28:58;6.10;97.40
3705;DHT22;1868;48.918;9.438;2022-11-20T00:31:27;6.10;97.40
3705;DHT22;1868;48.918;9.438;2022-11-20T00:33:57;6.10;97.40
3705;DHT22;1868;48.918;9.438;2022-11-20T00:36:26;6.20;97.40
3705;DHT22;1868;48.918;9.438;2022-11-20T00:38:57;6.20;97.40
3705;DHT22;1868;48.918;9.438;2022-11-20T00:41:26;6.20;97.40
3705;DHT22;1868;48.918;9.438;2022-11-20T00:43:57;6.20;97.40
3705;DHT22;1868;48.918;9.438;2022-11-20T00:46:26;6.20;97.40
3705;DHT22;1868;48.918;9.438;2022-11-20T00:48:55;6.20;97.40
3705;DHT22;1868;48.918;9.438;2022-11-20T00:51:25;6.20;97.40
3705;DHT22;1868;48.918;9.438;2022-11-20T00:53:55;6.20;97.40
3705;DHT22;1868;48.918;9.438;2022-11-20T00:56:24;6.30;97.40
3705;DHT22;1868;48.918;9.438;2022-11-20T00:58:54;6.30;97.40
3705;DHT22;1868;48.918;9.438;2022-11-20T01:01:25;6.30;97.40
3705;DHT22;1868;48.918;9.438;2022-11-20T01:03:57;6.30;97.40
3705;DHT22;1868;48.918;9.438;2022-11-20T01:06:28;6.30;97.40
3705;DHT22;1868;48.918;9.438;2022-11-20T01:08:59;6.30;97.40
3705;DHT22;1868;48.918;9.438;2022-11-20T01:11:30;6.30;97.40
3705;DHT22;1868;48.918;9.438;2022-11-20T01:14:02;6.30;97.40
3705;DHT22;1868;48.918;9.438;2022-11-20T01:16:34;6.30;97.40
3705;DHT22;1868;48.918;9.438;2022-11-20T01:19:05;6.30;97.40
3705;DHT22;1868;48.918;9.438;2022-11-20T01:21:36;6.30;97.40
3705;DHT22;1868;48.918;9.438;2022-11-20T01:24:07;6.30;97.40
3705;DHT22;1868;48.918;9.438;2022-11-20T01:26:38;6.30;97.40
3705;DHT22;1868;48.918;9.438;2022-11-20T01:29:13;6.20;97.40
3705;DHT22;1868;48.918;9.438;2022-11-20T01:31:45;6.20;97.40
3705;DHT22;1868;48.918;9.438;2022-11-20T01:34:16;6.20;97.40
3705;DHT22;1868;48.918;9.438;2022-11-20T01:36:46;6.20;97.40
3705;DHT22;1868;48.918;9.438;2022-11-20T01:39:16;6.20;97.40
3705;DHT22;1868;48.918;9.438;2022-11-20T01:41:47;6.20;97.40
3705;DHT22;1868;48.918;9.438;2022-11-20T01:44:49;6.20;97.40
3705;DHT22;1868;48.918;9.438;2022-11-20T01:47:27;6.20;97.40
3705;DHT22;1868;48.918;9.438;2022-11-20T01:50:05;6.30;97.40
3705;DHT22;1868;48.918;9.438;2022-11-20T01:52:41;6.20;97.40
3705;DHT22;1868;48.918;9.438;2022-11-20T01:55:15;6.30;97.40
3705;DHT22;1868;48.918;9.438;2022-11-20T01:57:47;6.20;97.40
3705;DHT22;1868;48.918;9.438;2022-11-20T02:00:19;6.20;97.40
3705;DHT22;1868;48.918;9.438;2022-11-20T02:02:51;6.20;97.40
3705;DHT22;1868;48.918;9.438;2022-11-20T02:05:25;6.20;97.40
3705;DHT22;1868;48.918;9.438;2022-11-20T02:07:57;6.30;97.40
3705;DHT22;1868;48.918;9.438;2022-11-20T02:10:27;6.20;97.40
3705;DHT22;1868;48.918;9.438;2022-11-20T02:12:56;6.20;97.40
3705;DHT22;1868;48.918;9.438;2022-11-20T02:15:44;6.20;97.40
3705;DHT22;1868;48.918;9.438;2022-11-20T02:18:14;6.20;97.40
3705;DHT22;1868;48.918;9.438;2022-11-20T02:20:46;6.20;97.40
3705;DHT22;1868;48.918;9.438;2022-11-20T02:23:21;6.20;97.40
3705;DHT22;1868;48.918;9.438;2022-11-20T02:25:54;6.20;97.40
3705;DHT22;1868;48.918;9.438;2022-11-20T02:28:23;6.30;97.40
3705;DHT22;1868;48.918;9.438;2022-11-20T02:30:51;6.20;97.40
3705;DHT22;1868;48.918;9.438;2022-11-20T02:33:20;6.30;97.40
3705;DHT22;1868;48.918;9.438;2022-11-20T02:35:48;6.30;97.40
3705;DHT22;1868;48.918;9.438;2022-11-20T02:38:16;6.30;97.40
3705;DHT22;1868;48.918;9.438;2022-11-20T02:40:44;6.30;97.40
3705;DHT22;1868;48.918;9.438;2022-11-20T02:43:19;6.30;97.40
3705;DHT22;1868;48.918;9.438;2022-11-20T02:45:47;6.30;97.40
3705;DHT22;1868;48.918;9.438;2022-11-20T02:48:16;6.30;97.40
3705;DHT22;1868;48.918;9.438;2022-11-20T02:50:44;6.30;97.40
3705;DHT22;1868;48.918;9.438;2022-11-20T02:53:12;6.30;97.40
3705;DHT22;1868;48.918;9.438;2022-11-20T02:55:40;6.30;97.40
3705;DHT22;1868;48.918;9.438;2022-11-20T02:58:08;6.30;97.40
3705;DHT22;1868;48.918;9.438;2022-11-20T03:00:38;6.30;97.40
3705;DHT22;1868;48.918;9.438;2022-11-20T03:03:06;6.40;97.40
3705;DHT22;1868;48.918;9.438;2022-11-20T03:05:34;6.40;97.40
3705;DHT22;1868;48.918;9.438;2022-11-20T03:08:02;6.30;97.40
3705;DHT22;1868;48.918;9.438;2022-11-20T03:10:31;6.30;97.40
3705;DHT22;1868;48.918;9.438;2022-11-20T03:12:59;6.40;97.40
3705;DHT22;1868;48.918;9.438;2022-11-20T03:15:29;6.40;97.40
3705;DHT22;1868;48.918;9.438;2022-11-20T03:17:59;6.50;97.40
3705;DHT22;1868;48.918;9.438;2022-11-20T03:20:27;6.50;97.40
3705;DHT22;1868;48.918;9.438;2022-11-20T03:22:55;6.50;97.40
3705;DHT22;1868;48.918;9.438;2022-11-20T03:25:23;6.50;97.40
3705;DHT22;1868;48.918;9.438;2022-11-20T03:27:52;6.50;97.40
3705;DHT22;1868;48.918;9.438;2022-11-20T03:30:20;6.50;97.40
3705;DHT22;1868;48.918;9.438;2022-11-20T03:32:56;6.50;97.40
3705;DHT22;1868;48.918;9.438;2022-11-20T03:35:25;6.50;97.40
3705;DHT22;1868;48.918;9.438;2022-11-20T03:37:53;6.50;97.40
3705;DHT22;1868;48.918;9.438;2022-11-20T03:40:22;6.60;97.40
3705;DHT22;1868;48.918;9.438;2022-11-20T03:42:50;6.50;97.40
3705;DHT22;1868;48.918;9.438;2022-11-20T03:45:18;6.40;97.40
3705;DHT22;1868;48.918;9.438;2022-11-20T03:47:46;6.40;97.40
3705;DHT22;1868;48.918;9.438;2022-11-20T03:50:15;6.40;97.40
3705;DHT22;1868;48.918;9.438;2022-11-20T03:52:44;6.40;97.40
3705;DHT22;1868;48.918;9.438;2022-11-20T03:55:13;6.40;97.40
3705;DHT22;1868;48.918;9.438;2022-11-20T03:57:41;6.30;97.40
3705;DHT22;1868;48.918;9.438;2022-11-20T04:00:10;6.30;97.40
3705;DHT22;1868;48.918;9.438;2022-11-20T04:02:39;6.30;97.40
3705;DHT22;1868;48.918;9.438;2022-11-20T04:05:08;6.30;97.40
3705;DHT22;1868;48.918;9.438;2022-11-20T04:07:36;6.40;97.40
3705;DHT22;1868;48.918;9.438;2022-11-20T04:10:06;6.40;97.40
3705;DHT22;1868;48.918;9.438;2022-11-20T04:12:35;6.50;97.40
3705;DHT22;1868;48.918;9.438;2022-11-20T04:15:04;6.50;97.40
3705;DHT22;1868;48.918;9.438;2022-11-20T04:17:32;6.50;97.40
3705;DHT22;1868;48.918;9.438;2022-11-20T04:20:01;6.50;97.40
3705;DHT22;1868;48.918;9.438;2022-11-20T04:22:30;6.50;97.40
3705;DHT22;1868;48.918;9.438;2022-11-20T04:24:58;6.50;97.40
3705;DHT22;1868;48.918;9.438;2022-11-20T04:27:27;6.50;97.40
3705;DHT22;1868;48.918;9.438;2022-11-20T04:29:56;6.50;97.40
3705;DHT22;1868;48.918;9.438;2022-11-20T04:32:24;6.60;97.40
3705;DHT22;1868;48.918;9.438;2022-11-20T04:34:52;6.60;97.40
3705;DHT22;1868;48.918;9.438;2022-11-20T04:37:20;6.60;97.40
3705;DHT22;1868;48.918;9.438;2022-11-20T04:39:48;6.60;97.40
3705;DHT22;1868;48.918;9.438;2022-11-20T04:42:17;6.60;97.40
3705;DHT22;1868;48.918;9.438;2022-11-20T04:44:58;6.60;97.40
3705;DHT22;1868;48.918;9.438;2022-11-20T04:47:26;6.60;97.40
3705;DHT22;1868;48.918;9.438;2022-11-20T04:49:55;6.70;97.40
3705;DHT22;1868;48.918;9.438;2022-11-20T04:52:23;6.60;97.40
3705;DHT22;1868;48.918;9.438;2022-11-20T04:54:53;6.60;97.40
3705;DHT22;1868;48.918;9.438;2022-11-20T04:57:21;6.60;97.40
3705;DHT22;1868;48.918;9.438;2022-11-20T04:59:49;6.60;97.40
3705;DHT22;1868;48.918;9.438;2022-11-20T05:02:19;6.60;97.40
3705;DHT22;1868;48.918;9.438;2022-11-20T05:04:48;6.70;97.40
3705;DHT22;1868;48.918;9.438;2022-11-20T05:07:16;6.60;97.40
3705;DHT22;1868;48.918;9.438;2022-11-20T05:09:44;6.60;97.40
3705;DHT22;1868;48.918;9.438;2022-11-20T05:12:13;6.60;97.40
3705;DHT22;1868;48.918;9.438;2022-11-20T05:14:41;6.60;97.40
3705;DHT22;1868;48.918;9.438;2022-11-20T05:17:10;6.50;97.40
3705;DHT22;1868;48.918;9.438;2022-11-20T05:19:40;6.50;97.40
3705;DHT22;1868;48.918;9.438;2022-11-20T05:22:08;6.50;97.40
3705;DHT22;1868;48.918;9.438;2022-11-20T05:24:36;6.50;97.40
3705;DHT22;1868;48.918;9.438;2022-11-20T05:27:05;6.40;97.40
3705;DHT22;1868;48.918;9.438;2022-11-20T05:29:33;6.50;97.40
3705;DHT22;1868;48.918;9.438;2022-11-20T05:32:01;6.50;97.40
3705;DHT22;1868;48.918;9.438;2022-11-20T05:34:29;6.50;97.40
3705;DHT22;1868;48.918;9.438;2022-11-20T05:36:59;6.50;97.40
3705;DHT22;1868;48.918;9.438;2022-11-20T05:39:27;6.50;97.40
3705;DHT22;1868;48.918;9.438;2022-11-20T05:41:55;6.40;97.40
3705;DHT22;1868;48.918;9.438;2022-11-20T05:44:37;6.40;97.40
3705;DHT22;1868;48.918;9.438;2022-11-20T05:47:06;6.40;97.40
3705;DHT22;1868;48.918;9.438;2022-11-20T05:49:34;6.40;97.40
3705;DHT22;1868;48.918;9.438;2022-11-20T05:52:04;6.40;97.40
3705;DHT22;1868;48.918;9.438;2022-11-20T05:54:32;6.40;97.40
3705;DHT22;1868;48.918;9.438;2022-11-20T05:57:00;6.40;97.40
3705;DHT22;1868;48.918;9.438;2022-11-20T05:59:29;6.40;97.40
3705;DHT22;1868;48.918;9.438;2022-11-20T06:01:57;6.40;97.40
3705;DHT22;1868;48.918;9.438;2022-11-20T06:04:25;6.40;97.40
3705;DHT22;1868;48.918;9.438;2022-11-20T06:06:53;6.40;97.40
3705;DHT22;1868;48.918;9.438;2022-11-20T06:09:23;6.40;97.40
3705;DHT22;1868;48.918;9.438;2022-11-20T06:11:51;6.40;97.40
3705;DHT22;1868;48.918;9.438;2022-11-20T06:14:19;6.40;97.40
3705;DHT22;1868;48.918;9.438;2022-11-20T06:16:47;6.40;97.40
3705;DHT22;1868;48.918;9.438;2022-11-20T06:19:15;6.40;97.40
3705;DHT22;1868;48.918;9.438;2022-11-20T06:21:44;6.40;97.40
3705;DHT22;1868;48.918;9.438;2022-11-20T06:24:12;6.40;97.40
3705;DHT22;1868;48.918;9.438;2022-11-20T06:26:42;6.40;97.40
3705;DHT22;1868;48.918;9.438;2022-11-20T06:29:11;6.40;97.40
3705;DHT22;1868;48.918;9.438;2022-11-20T06:31:39;6.40;97.40
3705;DHT22;1868;48.918;9.438;2022-11-20T06:34:09;6.50;97.40
3705;DHT22;1868;48.918;9.438;2022-11-20T06:36:37;6.50;97.40
3705;DHT22;1868;48.918;9.438;2022-11-20T06:39:05;6.50;97.40
3705;DHT22;1868;48.918;9.438;2022-11-20T06:41:33;6.50;97.40
3705;DHT22;1868;48.918;9.438;2022-11-20T06:44:03;6.50;97.40
3705;DHT22;1868;48.918;9.438;2022-11-20T06:46:32;6.50;97.40
3705;DHT22;1868;48.918;9.438;2022-11-20T06:49:00;6.40;97.40
3705;DHT22;1868;48.918;9.438;2022-11-20T06:51:28;6.50;97.40
3705;DHT22;1868;48.918;9.438;2022-11-20T06:53:56;6.50;97.40
3705;DHT22;1868;48.918;9.438;2022-11-20T06:56:24;6.50;97.40
3705;DHT22;1868;48.918;9.438;2022-11-20T06:58:52;6.50;97.40
3705;DHT22;1868;48.918;9.438;2022-11-20T07:01:22;6.50;97.40
3705;DHT22;1868;48.918;9.438;2022-11-20T07:03:50;6.50;97.40
3705;DHT22;1868;48.918;9.438;2022-11-20T07:06:20;6.50;97.40
3705;DHT22;1868;48.918;9.438;2022-11-20T07:08:50;6.50;97.40
3705;DHT22;1868;48.918;9.438;2022-11-20T07:11:19;6.50;97.40
3705;DHT22;1868;48.918;9.438;2022-11-20T07:13:47;6.50;97.40
3705;DHT22;1868;48.918;9.438;2022-11-20T07:16:15;6.60;97.40
3705;DHT22;1868;48.918;9.438;2022-11-20T07:18:45;6.60;97.40
3705;DHT22;1868;48.918;9.438;2022-11-20T07:21:16;6.60;97.40
3705;DHT22;1868;48.918;9.438;2022-11-20T07:23:44;6.70;97.40
3705;DHT22;1868;48.918;9.438;2022-11-20T07:26:13;6.60;97.40
3705;DHT22;1868;48.918;9.438;2022-11-20T07:28:44;6.70;97.40
3705;DHT22;1868;48.918;9.438;2022-11-20T07:31:12;6.70;97.40
3705;DHT22;1868;48.918;9.438;2022-11-20T07:33:46;6.70;97.40
3705;DHT22;1868;48.918;9.438;2022-11-20T07:36:15;6.70;97.40
3705;DHT22;1868;48.918;9.438;2022-11-20T07:38:43;6.70;97.40
3705;DHT22;1868;48.918;9.438;2022-11-20T07:41:11;6.80;97.40
3705;DHT22;1868;48.918;9.438;2022-11-20T07:43:39;6.90;97.40
3705;DHT22;1868;48.918;9.438;2022-11-20T07:46:08;7.00;97.40
3705;DHT22;1868;48.918;9.438;2022-11-20T07:48:36;7.00;97.40
3705;DHT22;1868;48.918;9.438;2022-11-20T07:51:06;7.00;97.40
3705;DHT22;1868;48.918;9.438;2022-11-20T07:53:34;7.10;97.40
3705;DHT22;1868;48.918;9.438;2022-11-20T07:56:02;7.00;97.40
3705;DHT22;1868;48.918;9.438;2022-11-20T07:58:31;7.10;97.40
3705;DHT22;1868;48.918;9.438;2022-11-20T08:01:05;7.10;97.40
3705;DHT22;1868;48.918;9.438;2022-11-20T08:03:34;6.90;97.40
3705;DHT22;1868;48.918;9.438;2022-11-20T08:06:06;6.90;97.40
3705;DHT22;1868;48.918;9.438;2022-11-20T08:08:35;6.90;97.40
3705;DHT22;1868;48.918;9.438;2022-11-20T08:11:09;6.80;97.40
3705;DHT22;1868;48.918;9.438;2022-11-20T08:13:55;6.80;97.40
3705;DHT22;1868;48.918;9.438;2022-11-20T08:16:49;6.70;97.40
3705;DHT22;1868;48.918;9.438;2022-11-20T08:19:18;6.70;97.40
3705;DHT22;1868;48.918;9.438;2022-11-20T08:21:48;6.70;97.40
3705;DHT22;1868;48.918;9.438;2022-11-20T08:24:16;6.70;97.40
3705;DHT22;1868;48.918;9.438;2022-11-20T08:26:44;6.70;97.40
3705;DHT22;1868;48.918;9.438;2022-11-20T08:29:13;6.70;97.40
3705;DHT22;1868;48.918;9.438;2022-11-20T08:31:44;6.80;97.40
3705;DHT22;1868;48.918;9.438;2022-11-20T08:34:12;6.80;97.40
3705;DHT22;1868;48.918;9.438;2022-11-20T08:36:45;6.80;97.40
3705;DHT22;1868;48.918;9.438;2022-11-20T08:39:14;6.80;97.40
3705;DHT22;1868;48.918;9.438;2022-11-20T08:41:42;6.90;97.40
3705;DHT22;1868;48.918;9.438;2022-11-20T08:44:11;6.90;97.40
3705;DHT22;1868;48.918;9.438;2022-11-20T08:46:41;6.90;97.40
3705;DHT22;1868;48.918;9.438;2022-11-20T08:49:11;7.00;97.40
3705;DHT22;1868;48.918;9.438;2022-11-20T08:51:41;7.00;97.40
3705;DHT22;1868;48.918;9.438;2022-11-20T08:54:09;7.00;97.40
3705;DHT22;1868;48.918;9.438;2022-11-20T08:56:39;7.00;97.40
3705;DHT22;1868;48.918;9.438;2022-11-20T08:59:07;7.10;97.40
3705;DHT22;1868;48.918;9.438;2022-11-20T09:01:55;7.10;97.40
3705;DHT22;1868;48.918;9.438;2022-11-20T09:04:24;7.20;97.40
3705;DHT22;1868;48.918;9.438;2022-11-20T09:06:52;7.20;97.40
3705;DHT22;1868;48.918;9.438;2022-11-20T09:09:20;7.20;97.40
3705;DHT22;1868;48.918;9.438;2022-11-20T09:11:50;7.30;97.40
3705;DHT22;1868;48.918;9.438;2022-11-20T09:14:18;7.30;97.40
3705;DHT22;1868;48.918;9.438;2022-11-20T09:16:48;7.30;97.40
3705;DHT22;1868;48.918;9.438;2022-11-20T09:19:16;7.40;97.40
3705;DHT22;1868;48.918;9.438;2022-11-20T09:22:04;7.40;97.40
3705;DHT22;1868;48.918;9.438;2022-11-20T09:24:32;7.40;97.40
3705;DHT22;1868;48.918;9.438;2022-11-20T09:27:05;7.50;97.40
3705;DHT22;1868;48.918;9.438;2022-11-20T09:29:33;7.50;97.40
3705;DHT22;1868;48.918;9.438;2022-11-20T09:32:02;7.50;97.40
3705;DHT22;1868;48.918;9.438;2022-11-20T09:34:30;7.50;97.40
3705;DHT22;1868;48.918;9.438;2022-11-20T09:36:58;7.50;97.40
3705;DHT22;1868;48.918;9.438;2022-11-20T09:39:32;7.50;97.40
3705;DHT22;1868;48.918;9.438;2022-11-20T09:42:19;7.50;97.40
3705;DHT22;1868;48.918;9.438;2022-11-20T09:45:08;7.50;97.40
3705;DHT22;1868;48.918;9.438;2022-11-20T09:47:53;7.60;97.40
3705;DHT22;1868;48.918;9.438;2022-11-20T09:50:31;7.60;97.40
3705;DHT22;1868;48.918;9.438;2022-11-20T09:53:11;7.60;97.40
3705;DHT22;1868;48.918;9.438;2022-11-20T09:55:41;7.60;97.40
3705;DHT22;1868;48.918;9.438;2022-11-20T09:58:16;7.60;97.40
3705;DHT22;1868;48.918;9.438;2022-11-20T10:00:51;7.60;97.40
3705;DHT22;1868;48.918;9.438;2022-11-20T10:03:36;7.70;97.40
3705;DHT22;1868;48.918;9.438;2022-11-20T10:06:12;7.70;97.40
3705;DHT22;1868;48.918;9.438;2022-11-20T10:08:46;7.70;97.40
3705;DHT22;1868;48.918;9.438;2022-11-20T10:11:24;7.70;97.40
3705;DHT22;1868;48.918;9.438;2022-11-20T10:14:07;7.80;97.40
3705;DHT22;1868;48.918;9.438;2022-11-20T10:16:50;7.80;97.40
3705;DHT22;1868;48.918;9.438;2022-11-20T10:19:36;7.80;97.40
3705;DHT22;1868;48.918;9.438;2022-11-20T10:22:19;7.90;97.40
3705;DHT22;1868;48.918;9.438;2022-11-20T10:24:56;7.90;97.40
3705;DHT22;1868;48.918;9.438;2022-11-20T10:27:48;8.00;97.40
3705;DHT22;1868;48.918;9.438;2022-11-20T10:30:26;8.10;97.40
3705;DHT22;1868;48.918;9.438;2022-11-20T10:33:01;8.20;97.40
3705;DHT22;1868;48.918;9.438;2022-11-20T10:35:35;8.20;97.40
3705;DHT22;1868;48.918;9.438;2022-11-20T10:38:11;8.20;97.40
3705;DHT22;1868;48.918;9.438;2022-11-20T10:40:44;8.20;97.40
3705;DHT22;1868;48.918;9.438;2022-11-20T10:43:17;8.20;97.40
3705;DHT22;1868;48.918;9.438;2022-11-20T10:45:53;8.20;97.40
3705;DHT22;1868;48.918;9.438;2022-11-20T10:48:25;8.10;97.40
3705;DHT22;1868;48.918;9.438;2022-11-20T10:51:03;8.10;97.40
3705;DHT22;1868;48.918;9.438;2022-11-20T10:54:09;8.20;97.40
3705;DHT22;1868;48.918;9.438;2022-11-20T10:56:44;8.20;97.40
3705;DHT22;1868;48.918;9.438;2022-11-20T10:59:38;8.20;97.40
3705;DHT22;1868;48.918;9.438;2022-11-20T11:02:17;8.30;97.40
3705;DHT22;1868;48.918;9.438;2022-11-20T11:04:48;8.30;97.40
3705;DHT22;1868;48.918;9.438;2022-11-20T11:07:20;8.30;97.40
3705;DHT22;1868;48.918;9.438;2022-11-20T11:09:52;8.40;97.40
3705;DHT22;1868;48.918;9.438;2022-11-20T11:12:24;8.30;97.40
3705;DHT22;1868;48.918;9.438;2022-11-20T11:14:55;8.30;97.40
3705;DHT22;1868;48.918;9.438;2022-11-20T11:17:28;8.20;97.40
3705;DHT22;1868;48.918;9.438;2022-11-20T11:19:59;8.20;97.40
3705;DHT22;1868;48.918;9.438;2022-11-20T11:22:29;8.20;97.40
3705;DHT22;1868;48.918;9.438;2022-11-20T11:24:59;8.20;97.40
3705;DHT22;1868;48.918;9.438;2022-11-20T11:27:28;8.30;97.40
3705;DHT22;1868;48.918;9.438;2022-11-20T11:30:13;8.30;97.40
3705;DHT22;1868;48.918;9.438;2022-11-20T11:32:46;8.30;97.40
3705;DHT22;1868;48.918;9.438;2022-11-20T11:35:24;8.30;97.40
3705;DHT22;1868;48.918;9.438;2022-11-20T11:38:03;8.30;97.40
3705;DHT22;1868;48.918;9.438;2022-11-20T11:40:35;8.20;97.40
3705;DHT22;1868;48.918;9.438;2022-11-20T11:43:06;8.30;97.40
3705;DHT22;1868;48.918;9.438;2022-11-20T11:46:08;8.30;97.40
3705;DHT22;1868;48.918;9.438;2022-11-20T11:48:57;8.40;97.40
3705;DHT22;1868;48.918;9.438;2022-11-20T11:51:32;8.60;97.40
3705;DHT22;1868;48.918;9.438;2022-11-20T11:54:13;8.70;97.40
3705;DHT22;1868;48.918;9.438;2022-11-20T11:56:43;8.70;97.40
3705;DHT22;1868;48.918;9.438;2022-11-20T11:59:16;8.80;97.40
3705;DHT22;1868;48.918;9.438;2022-11-20T12:01:55;9.00;97.40
3705;DHT22;1868;48.918;9.438;2022-11-20T12:04:40;9.20;97.40
3705;DHT22;1868;48.918;9.438;2022-11-20T12:07:13;9.40;97.40
3705;DHT22;1868;48.918;9.438;2022-11-20T12:10:15;9.50;97.40
3705;DHT22;1868;48.918;9.438;2022-11-20T12:12:51;9.50;97.40
3705;DHT22;1868;48.918;9.438;2022-11-20T12:15:31;9.50;97.40
3705;DHT22;1868;48.918;9.438;2022-11-20T12:18:01;9.50;97.40
3705;DHT22;1868;48.918;9.438;2022-11-20T12:20:38;9.50;97.40
3705;DHT22;1868;48.918;9.438;2022-11-20T12:23:18;9.60;97.40
3705;DHT22;1868;48.918;9.438;2022-11-20T12:25:54;9.60;97.40
3705;DHT22;1868;48.918;9.438;2022-11-20T12:28:41;9.60;97.40
3705;DHT22;1868;48.918;9.438;2022-11-20T12:31:31;9.60;97.40
3705;DHT22;1868;48.918;9.438;2022-11-20T12:34:15;9.50;97.40
3705;DHT22;1868;48.918;9.438;2022-11-20T12:36:59;9.60;97.40
3705;DHT22;1868;48.918;9.438;2022-11-20T12:39:34;9.60;97.40
3705;DHT22;1868;48.918;9.438;2022-11-20T12:42:18;9.70;97.40
3705;DHT22;1868;48.918;9.438;2022-11-20T12:45:54;9.70;97.40
3705;DHT22;1868;48.918;9.438;2022-11-20T12:48:49;9.70;97.40
3705;DHT22;1868;48.918;9.438;2022-11-20T12:51:55;9.80;97.40
3705;DHT22;1868;48.918;9.438;2022-11-20T12:54:50;9.90;97.40
3705;DHT22;1868;48.918;9.438;2022-11-20T12:57:36;10.10;97.40
3705;DHT22;1868;48.918;9.438;2022-11-20T13:00:14;10.20;97.40
3705;DHT22;1868;48.918;9.438;2022-11-20T13:03:09;10.30;97.40
3705;DHT22;1868;48.918;9.438;2022-11-20T13:05:53;10.30;97.40
3705;DHT22;1868;48.918;9.438;2022-11-20T13:08:28;10.30;97.40
3705;DHT22;1868;48.918;9.438;2022-11-20T13:11:01;10.40;97.40
3705;DHT22;1868;48.918;9.438;2022-11-20T13:13:43;10.50;97.40
3705;DHT22;1868;48.918;9.438;2022-11-20T13:16:33;10.50;97.40
3705;DHT22;1868;48.918;9.438;2022-11-20T13:19:10;10.60;97.40
3705;DHT22;1868;48.918;9.438;2022-11-20T13:21:41;10.70;97.40
3705;DHT22;1868;48.918;9.438;2022-11-20T13:24:24;10.60;97.40
3705;DHT22;1868;48.918;9.438;2022-11-20T13:27:16;10.60;97.40
3705;DHT22;1868;48.918;9.438;2022-11-20T13:29:58;10.50;97.40
3705;DHT22;1868;48.918;9.438;2022-11-20T13:32:28;10.30;97.40
3705;DHT22;1868;48.918;9.438;2022-11-20T13:35:00;10.20;97.40
3705;DHT22;1868;48.918;9.438;2022-11-20T13:37:31;10.20;97.40
3705;DHT22;1868;48.918;9.438;2022-11-20T13:40:21;10.10;97.40
3705;DHT22;1868;48.918;9.438;2022-11-20T13:43:02;10.10;97.40
3705;DHT22;1868;48.918;9.438;2022-11-20T13:45:35;10.00;97.40
3705;DHT22;1868;48.918;9.438;2022-11-20T13:48:15;10.00;97.40
3705;DHT22;1868;48.918;9.438;2022-11-20T13:50:56;10.00;97.40
3705;DHT22;1868;48.918;9.438;2022-11-20T13:53:48;10.10;97.40
3705;DHT22;1868;48.918;9.438;2022-11-20T13:56:34;10.00;97.40
3705;DHT22;1868;48.918;9.438;2022-11-20T13:59:24;9.90;97.40
3705;DHT22;1868;48.918;9.438;2022-11-20T14:01:57;10.00;97.40
3705;DHT22;1868;48.918;9.438;2022-11-20T14:04:28;10.00;97.40
3705;DHT22;1868;48.918;9.438;2022-11-20T14:06:59;9.90;97.40
3705;DHT22;1868;48.918;9.438;2022-11-20T14:09:29;9.90;97.40
3705;DHT22;1868;48.918;9.438;2022-11-20T14:12:02;9.70;97.40
3705;DHT22;1868;48.918;9.438;2022-11-20T14:14:33;9.60;97.40
3705;DHT22;1868;48.918;9.438;2022-11-20T14:17:06;9.60;97.40
3705;DHT22;1868;48.918;9.438;2022-11-20T14:19:36;9.50;97.40
3705;DHT22;1868;48.918;9.438;2022-11-20T14:22:16;9.40;97.40
3705;DHT22;1868;48.918;9.438;2022-11-20T14:25:03;9.40;97.40
3705;DHT22;1868;48.918;9.438;2022-11-20T14:27:44;9.40;97.40
3705;DHT22;1868;48.918;9.438;2022-11-20T14:30:20;9.40;97.40
3705;DHT22;1868;48.918;9.438;2022-11-20T14:32:51;9.40;97.40
3705;DHT22;1868;48.918;9.438;2022-11-20T14:35:24;9.40;97.40
3705;DHT22;1868;48.918;9.438;2022-11-20T14:38:10;9.30;97.40
3705;DHT22;1868;48.918;9.438;2022-11-20T14:40:40;9.30;97.40
3705;DHT22;1868;48.918;9.438;2022-11-20T14:43:19;9.20;97.40
3705;DHT22;1868;48.918;9.438;2022-11-20T14:45:56;9.20;97.40
3705;DHT22;1868;48.918;9.438;2022-11-20T14:48:29;9.10;97.40
3705;DHT22;1868;48.918;9.438;2022-11-20T14:50:59;9.10;97.40
3705;DHT22;1868;48.918;9.438;2022-11-20T14:53:27;9.10;97.40
3705;DHT22;1868;48.918;9.438;2022-11-20T14:55:57;9.00;97.40
3705;DHT22;1868;48.918;9.438;2022-11-20T14:58:29;8.90;97.40
3705;DHT22;1868;48.918;9.438;2022-11-20T15:01:02;8.80;97.40
3705;DHT22;1868;48.918;9.438;2022-11-20T15:03:33;8.80;97.40
3705;DHT22;1868;48.918;9.438;2022-11-20T15:06:03;8.70;97.40
3705;DHT22;1868;48.918;9.438;2022-11-20T15:08:31;8.70;97.40
3705;DHT22;1868;48.918;9.438;2022-11-20T15:11:00;8.60;97.40
3705;DHT22;1868;48.918;9.438;2022-11-20T15:13:32;8.50;97.40
3705;DHT22;1868;48.918;9.438;2022-11-20T15:16:04;8.40;97.40
3705;DHT22;1868;48.918;9.438;2022-11-20T15:18:39;8.30;97.40
3705;DHT22;1868;48.918;9.438;2022-11-20T15:21:11;8.20;97.40
3705;DHT22;1868;48.918;9.438;2022-11-20T15:23:40;8.10;97.40
3705;DHT22;1868;48.918;9.438;2022-11-20T15:26:10;8.00;97.40
3705;DHT22;1868;48.918;9.438;2022-11-20T15:28:48;8.00;97.40
3705;DHT22;1868;48.918;9.438;2022-11-20T15:31:18;7.80;97.40
3705;DHT22;1868;48.918;9.438;2022-11-20T15:33:47;7.80;97.40
3705;DHT22;1868;48.918;9.438;2022-11-20T15:36:16;7.70;97.40
3705;DHT22;1868;48.918;9.438;2022-11-20T15:38:44;7.60;97.40
3705;DHT22;1868;48.918;9.438;2022-11-20T15:41:13;7.60;97.40
3705;DHT22;1868;48.918;9.438;2022-11-20T15:43:41;7.50;97.40
3705;DHT22;1868;48.918;9.438;2022-11-20T15:46:13;7.50;97.40
3705;DHT22;1868;48.918;9.438;2022-11-20T15:48:44;7.40;97.40
3705;DHT22;1868;48.918;9.438;2022-11-20T15:51:25;7.30;97.40
3705;DHT22;1868;48.918;9.438;2022-11-20T15:53:55;7.20;97.40
3705;DHT22;1868;48.918;9.438;2022-11-20T15:56:24;7.20;97.40
3705;DHT22;1868;48.918;9.438;2022-11-20T15:58:53;7.10;97.40
3705;DHT22;1868;48.918;9.438;2022-11-20T16:01:22;7.10;97.40
3705;DHT22;1868;48.918;9.438;2022-11-20T16:03:51;7.00;97.40
3705;DHT22;1868;48.918;9.438;2022-11-20T16:06:19;7.00;97.40
3705;DHT22;1868;48.918;9.438;2022-11-20T16:08:47;6.90;97.40
3705;DHT22;1868;48.918;9.438;2022-11-20T16:11:17;6.90;97.40
3705;DHT22;1868;48.918;9.438;2022-11-20T16:13:45;6.90;97.40
3705;DHT22;1868;48.918;9.438;2022-11-20T16:16:34;6.90;97.40
3705;DHT22;1868;48.918;9.438;2022-11-20T16:19:04;6.80;97.40
3705;DHT22;1868;48.918;9.438;2022-11-20T16:21:32;6.80;97.40
3705;DHT22;1868;48.918;9.438;2022-11-20T16:24:03;6.70;97.40
3705;DHT22;1868;48.918;9.438;2022-11-20T16:26:33;6.70;97.40
3705;DHT22;1868;48.918;9.438;2022-11-20T16:29:02;6.70;97.40
3705;DHT22;1868;48.918;9.438;2022-11-20T16:31:35;6.70;97.40
3705;DHT22;1868;48.918;9.438;2022-11-20T16:34:05;6.80;97.40
3705;DHT22;1868;48.918;9.438;2022-11-20T16:36:49;6.80;97.40
3705;DHT22;1868;48.918;9.438;2022-11-20T16:43:36;6.90;97.40
3705;DHT22;1868;48.918;9.438;2022-11-20T16:46:04;6.90;97.40
3705;DHT22;1868;48.918;9.438;2022-11-20T16:48:34;6.90;97.40
3705;DHT22;1868;48.918;9.438;2022-11-20T16:51:03;6.90;97.40
3705;DHT22;1868;48.918;9.438;2022-11-20T16:53:32;6.90;97.40
3705;DHT22;1868;48.918;9.438;2022-11-20T16:56:08;7.00;97.40
3705;DHT22;1868;48.918;9.438;2022-11-20T16:58:38;7.00;97.40